createdAt,value
2022-07-26T00:00:10.728Z,99.90
2022-07-26T00:02:37.469Z,99.90
2022-07-26T00:05:04.810Z,99.90
2022-07-26T00:07:36.718Z,99.90
2022-07-26T00:10:04.674Z,99.90
2022-07-26T00:12:31.319Z,99.90
2022-07-26T00:17:24.960Z,99.90
2022-07-26T00:19:51.618Z,99.90
2022-07-26T00:22:38.952Z,99.90
2022-07-26T00:25:08.846Z,99.90
2022-07-26T00:27:38.887Z,99.90
2022-07-26T00:30:06.628Z,99.90
2022-07-26T00:32:33.442Z,99.90
2022-07-26T00:35:00.089Z,99.90
2022-07-26T00:37:26.827Z,99.90
2022-07-26T00:39:53.423Z,99.90
2022-07-26T00:42:20.035Z,99.90
2022-07-26T00:44:46.783Z,99.90
2022-07-26T00:47:13.589Z,99.90
2022-07-26T00:49:40.341Z,99.90
2022-07-26T00:52:07.562Z,99.90
2022-07-26T00:54:34.424Z,99.90
2022-07-26T00:57:01.090Z,99.90
2022-07-26T00:59:28.222Z,99.90
2022-07-26T01:01:55.245Z,99.90
2022-07-26T01:04:22.031Z,99.90
2022-07-26T01:06:49.283Z,99.90
2022-07-26T01:09:16.433Z,99.90
2022-07-26T01:11:43.257Z,99.90
2022-07-26T01:14:10.402Z,99.90
2022-07-26T01:16:37.446Z,99.90
2022-07-26T01:19:04.136Z,99.90
2022-07-26T01:21:31.446Z,99.90
2022-07-26T01:23:58.252Z,99.90
2022-07-26T01:26:25.641Z,99.90
2022-07-26T01:28:52.619Z,99.90
2022-07-26T01:31:19.468Z,99.90
2022-07-26T01:33:46.252Z,99.90
2022-07-26T01:36:13.121Z,99.90
2022-07-26T01:38:40.845Z,99.90
2022-07-26T01:41:07.514Z,99.90
2022-07-26T01:43:34.207Z,99.90
2022-07-26T01:46:00.919Z,99.90
2022-07-26T01:48:27.661Z,99.90
2022-07-26T01:50:54.402Z,99.90
2022-07-26T01:53:21.023Z,99.90
2022-07-26T01:55:47.714Z,99.90
2022-07-26T01:58:14.327Z,99.90
2022-07-26T02:00:40.989Z,99.90
2022-07-26T02:03:07.624Z,99.90
2022-07-26T02:05:34.390Z,99.90
2022-07-26T02:08:01.099Z,99.90
2022-07-26T02:10:47.062Z,99.90
2022-07-26T02:13:14.381Z,99.90
2022-07-26T02:15:41.374Z,99.90
2022-07-26T02:18:08.037Z,99.90
2022-07-26T02:20:34.728Z,99.90
2022-07-26T02:23:01.507Z,99.90
2022-07-26T02:25:28.100Z,99.90
2022-07-26T02:27:54.707Z,99.90
2022-07-26T02:30:21.348Z,99.90
2022-07-26T02:32:48.105Z,99.90
2022-07-26T02:35:14.711Z,99.90
2022-07-26T02:42:40.950Z,99.90
2022-07-26T02:50:01.643Z,99.90
2022-07-26T02:52:28.263Z,99.90
2022-07-26T02:54:54.850Z,99.90
2022-07-26T02:57:21.461Z,99.90
2022-07-26T02:59:48.055Z,99.90
2022-07-26T03:02:14.724Z,99.90
2022-07-26T03:04:41.345Z,99.90
2022-07-26T03:07:10.496Z,99.90
2022-07-26T03:09:37.068Z,99.90
2022-07-26T03:12:03.816Z,99.90
2022-07-26T03:14:30.408Z,99.90
2022-07-26T03:16:57.039Z,99.90
2022-07-26T03:19:23.630Z,99.90
2022-07-26T03:36:32.926Z,99.90
2022-07-26T03:38:59.573Z,99.90
2022-07-26T03:53:41.642Z,99.90
2022-07-26T03:56:27.153Z,99.90
2022-07-26T03:58:53.955Z,99.90
2022-07-26T04:01:20.901Z,99.90
2022-07-26T04:03:47.988Z,99.90
2022-07-26T04:06:15.027Z,99.90
2022-07-26T04:08:42.312Z,99.90
2022-07-26T04:11:08.994Z,99.90
2022-07-26T04:18:30.353Z,99.90
2022-07-26T04:20:56.973Z,99.90
2022-07-26T04:23:23.631Z,99.90
2022-07-26T04:25:50.271Z,99.90
2022-07-26T04:28:16.919Z,99.90
2022-07-26T05:57:10.213Z,99.90
2022-07-26T05:59:36.843Z,99.90
2022-07-26T06:02:03.604Z,99.90
2022-07-26T06:04:30.517Z,99.90
2022-07-26T06:06:57.271Z,99.90
2022-07-26T06:09:24.953Z,99.90
2022-07-26T06:11:51.719Z,99.90
2022-07-26T06:14:18.944Z,99.90
2022-07-26T06:16:48.750Z,99.90
2022-07-26T06:21:42.888Z,99.90
2022-07-26T06:24:10.074Z,99.90
2022-07-26T06:26:37.216Z,99.90
2022-07-26T06:29:03.900Z,99.90
2022-07-26T06:31:30.760Z,99.90
2022-07-26T06:33:57.550Z,99.90
2022-07-26T06:36:28.528Z,99.90
2022-07-26T06:43:51.264Z,99.90
2022-07-26T06:51:14.589Z,99.90
2022-07-26T06:53:43.662Z,99.90
2022-07-26T06:56:10.505Z,99.90
2022-07-26T06:58:37.176Z,99.90
2022-07-26T07:01:03.889Z,99.90
2022-07-26T07:03:30.597Z,99.90
2022-07-26T07:05:57.235Z,99.90
2022-07-26T07:08:24.870Z,99.90
2022-07-26T07:10:52.003Z,99.90
2022-07-26T07:13:19.213Z,99.90
2022-07-26T07:15:45.887Z,99.90
2022-07-26T07:25:34.516Z,99.90
2022-07-26T07:30:28.571Z,99.90
2022-07-26T07:32:55.881Z,99.90
2022-07-26T07:35:23.300Z,99.90
2022-07-26T07:37:53.148Z,99.90
2022-07-26T07:40:21.188Z,99.90
2022-07-26T07:42:47.865Z,99.90
2022-07-26T07:45:14.988Z,99.90
2022-07-26T07:47:41.744Z,99.90
2022-07-26T07:50:08.735Z,99.90
2022-07-26T07:52:35.471Z,99.90
2022-07-26T07:55:39.949Z,99.90
2022-07-26T07:57:49.797Z,99.90
2022-07-26T08:00:19.453Z,99.90
2022-07-26T08:02:54.049Z,99.90
2022-07-26T08:05:21.506Z,99.90
2022-07-26T08:07:48.435Z,99.90
2022-07-26T08:10:17.011Z,99.90
2022-07-26T08:12:44.302Z,99.90
2022-07-26T08:15:11.232Z,99.90
2022-07-26T08:17:38.044Z,99.90
2022-07-26T08:20:08.951Z,99.90
2022-07-26T08:22:41.498Z,99.90
2022-07-26T08:25:08.635Z,99.90
2022-07-26T08:27:40.674Z,99.90
2022-07-26T08:30:08.168Z,99.90
2022-07-26T08:32:35.633Z,99.90
2022-07-26T08:35:19.744Z,99.90
2022-07-26T08:37:46.878Z,99.90
2022-07-26T08:40:13.561Z,99.90
2022-07-26T08:42:40.307Z,99.90
2022-07-26T08:45:07.257Z,99.90
2022-07-26T08:47:37.487Z,99.90
2022-07-26T08:50:07.459Z,99.90
2022-07-26T08:52:34.632Z,99.90
2022-07-26T08:55:01.352Z,99.90
2022-07-26T08:57:28.033Z,99.90
2022-07-26T09:00:13.649Z,99.90
2022-07-26T09:02:41.699Z,99.90
2022-07-26T09:05:08.526Z,99.90
2022-07-26T09:07:35.269Z,99.90
2022-07-26T09:10:03.857Z,99.90
2022-07-26T09:12:31.150Z,99.90
2022-07-26T09:14:58.238Z,99.90
2022-07-26T09:17:25.971Z,99.90
2022-07-26T09:20:07.900Z,99.90
2022-07-26T09:22:34.858Z,99.90
2022-07-26T09:25:01.683Z,99.90
2022-07-26T09:27:34.775Z,99.90
2022-07-26T09:30:05.513Z,99.90
2022-07-26T09:32:32.233Z,99.90
2022-07-26T09:35:49.595Z,99.90
2022-07-26T09:38:14.688Z,99.90
2022-07-26T09:43:10.037Z,99.90
2022-07-26T09:45:36.982Z,99.90
2022-07-26T09:48:03.801Z,99.90
2022-07-26T09:50:31.633Z,99.90
2022-07-26T09:55:25.434Z,99.90
2022-07-26T09:57:53.158Z,99.90
2022-07-26T10:00:19.934Z,99.90
2022-07-26T10:02:46.718Z,99.90
2022-07-26T10:05:13.418Z,99.90
2022-07-26T10:07:40.123Z,99.90
2022-07-26T10:10:20.126Z,99.90
2022-07-26T10:12:49.556Z,99.90
2022-07-26T10:15:35.578Z,99.90
2022-07-26T10:18:02.881Z,99.90
2022-07-26T10:20:40.344Z,99.90
2022-07-26T10:23:25.813Z,99.90
2022-07-26T10:25:54.310Z,99.90
2022-07-26T10:28:28.768Z,99.90
2022-07-26T10:31:14.227Z,99.90
2022-07-26T10:33:44.193Z,99.90
2022-07-26T10:36:31.264Z,99.90
2022-07-26T10:39:05.904Z,99.90
2022-07-26T10:41:36.951Z,99.90
2022-07-26T10:44:17.026Z,99.90
2022-07-26T10:46:57.298Z,99.90
2022-07-26T10:49:29.058Z,99.90
2022-07-26T10:52:14.202Z,99.90
2022-07-26T10:54:59.160Z,99.90
2022-07-26T10:57:32.917Z,99.90
2022-07-26T11:00:00.120Z,99.90
2022-07-26T11:02:35.864Z,99.90
2022-07-26T11:05:14.359Z,99.90
2022-07-26T11:08:10.851Z,99.90
2022-07-26T11:15:32.034Z,99.90
2022-07-26T11:18:08.709Z,99.90
2022-07-26T11:20:35.574Z,99.90
2022-07-26T11:23:02.488Z,99.90
2022-07-26T11:25:29.333Z,98.50
2022-07-26T11:28:03.165Z,99.90
2022-07-26T11:30:34.244Z,97.90
2022-07-26T11:33:00.911Z,98.80
2022-07-26T11:35:30.325Z,99.90
2022-07-26T11:38:07.764Z,98.70
2022-07-26T11:40:47.677Z,98.30
2022-07-26T11:43:14.465Z,96.60
2022-07-26T11:45:41.240Z,94.00
2022-07-26T11:48:08.071Z,93.20
2022-07-26T11:50:34.770Z,92.10
2022-07-26T11:53:01.609Z,92.30
2022-07-26T11:55:29.272Z,93.20
2022-07-26T11:57:56.239Z,94.10
2022-07-26T12:00:23.724Z,93.20
2022-07-26T12:02:55.773Z,93.60
2022-07-26T12:05:23.548Z,92.50
2022-07-26T12:07:54.507Z,92.40
2022-07-26T12:10:21.201Z,92.20
2022-07-26T12:15:15.771Z,99.90
2022-07-26T12:17:58.917Z,97.70
2022-07-26T12:20:28.582Z,90.70
2022-07-26T12:22:56.126Z,87.40
2022-07-26T12:25:26.753Z,89.20
2022-07-26T12:27:53.472Z,85.10
2022-07-26T12:30:20.551Z,85.60
2022-07-26T12:32:48.969Z,78.90
2022-07-26T12:35:16.966Z,80.20
2022-07-26T12:37:46.644Z,84.30
2022-07-26T12:40:20.302Z,83.90
2022-07-26T12:42:50.005Z,84.40
2022-07-26T12:45:17.971Z,81.30
2022-07-26T12:47:45.054Z,80.70
2022-07-26T12:50:12.679Z,79.40
2022-07-26T12:52:39.629Z,78.90
2022-07-26T12:55:07.269Z,80.80
2022-07-26T12:57:34.309Z,81.20
2022-07-26T13:00:04.764Z,81.20
2022-07-26T13:02:31.471Z,79.00
2022-07-26T13:07:27.771Z,89.30
2022-07-26T13:10:21.492Z,78.00
2022-07-26T13:12:41.518Z,78.90
2022-07-26T13:15:08.550Z,78.70
2022-07-26T13:17:35.410Z,77.40
2022-07-26T13:20:02.227Z,75.90
2022-07-26T13:24:56.078Z,71.20
2022-07-26T13:27:23.089Z,75.60
2022-07-26T13:29:49.786Z,75.90
2022-07-26T13:32:17.199Z,76.20
2022-07-26T13:34:43.893Z,75.00
2022-07-26T13:37:10.569Z,70.40
2022-07-26T13:39:37.315Z,74.00
2022-07-26T13:42:04.071Z,75.60
2022-07-26T13:44:30.753Z,76.60
2022-07-26T13:46:57.417Z,75.80
2022-07-26T13:49:24.147Z,78.00
2022-07-26T13:52:00.117Z,77.70
2022-07-26T13:54:32.216Z,73.20
2022-07-26T13:59:26.721Z,67.00
2022-07-26T14:01:54.455Z,67.50
2022-07-26T14:04:21.590Z,63.20
2022-07-26T14:06:48.579Z,63.70
2022-07-26T14:09:15.890Z,63.80
2022-07-26T14:11:42.902Z,63.90
2022-07-26T14:14:09.996Z,63.70
2022-07-26T14:16:36.978Z,71.80
2022-07-26T14:19:03.730Z,71.20
2022-07-26T14:21:38.685Z,74.20
2022-07-26T14:24:15.563Z,92.30
2022-07-26T14:26:45.206Z,78.00
2022-07-26T14:31:40.806Z,83.00
2022-07-26T14:34:07.666Z,80.30
2022-07-26T14:36:34.595Z,83.20
2022-07-26T14:39:01.265Z,86.40
2022-07-26T14:41:27.944Z,80.60
2022-07-26T14:43:55.486Z,98.40
2022-07-26T14:46:22.458Z,98.00
2022-07-26T14:51:21.705Z,99.90
2022-07-26T14:53:48.486Z,76.60
2022-07-26T14:56:15.149Z,77.50
2022-07-26T14:58:41.846Z,76.90
2022-07-26T15:01:08.563Z,78.40
2022-07-26T15:03:35.356Z,79.30
2022-07-26T15:06:02.164Z,77.40
2022-07-26T15:08:28.872Z,74.70
2022-07-26T15:10:55.642Z,76.80
2022-07-26T15:13:22.350Z,77.10
2022-07-26T15:15:49.000Z,80.40
2022-07-26T15:23:10.224Z,82.30
2022-07-26T15:28:05.631Z,90.40
2022-07-26T15:30:33.244Z,96.80
2022-07-26T15:33:02.006Z,83.80
2022-07-26T15:35:29.637Z,92.80
2022-07-26T15:37:56.328Z,94.10
2022-07-26T15:40:23.127Z,94.00
2022-07-26T15:42:52.182Z,93.40
2022-07-26T15:45:19.933Z,92.80
2022-07-26T15:48:01.081Z,91.10
2022-07-26T15:50:34.116Z,95.80
2022-07-26T15:53:00.808Z,99.90
2022-07-26T15:55:27.605Z,99.90
2022-07-26T15:57:54.274Z,99.90
2022-07-26T16:00:21.069Z,99.90
2022-07-26T16:02:47.902Z,99.80
2022-07-26T16:05:14.745Z,95.40
2022-07-26T16:07:41.908Z,94.50
2022-07-26T16:10:09.774Z,82.10
2022-07-26T16:12:36.479Z,81.40
2022-07-26T16:15:03.485Z,80.70
2022-07-26T16:17:30.246Z,79.30
2022-07-26T16:19:56.982Z,84.90
2022-07-26T16:22:23.714Z,86.50
2022-07-26T16:24:50.454Z,84.30
2022-07-26T16:27:17.145Z,86.30
2022-07-26T16:29:43.898Z,90.20
2022-07-26T16:32:11.224Z,98.30
2022-07-26T16:34:38.172Z,99.90
2022-07-26T16:37:05.382Z,96.50
2022-07-26T16:39:32.212Z,81.70
2022-07-26T16:42:03.236Z,99.90
2022-07-26T16:44:33.349Z,92.80
2022-07-26T16:47:00.121Z,97.70
2022-07-26T16:49:26.900Z,94.70
2022-07-26T16:51:53.578Z,95.20
2022-07-26T16:54:21.128Z,84.90
2022-07-26T16:56:47.757Z,84.90
2022-07-26T16:59:14.787Z,86.80
2022-07-26T17:01:41.781Z,89.20
2022-07-26T17:04:08.485Z,88.00
2022-07-26T17:06:35.130Z,93.10
2022-07-26T17:09:01.854Z,95.80
2022-07-26T17:11:28.519Z,89.80
2022-07-26T17:13:55.181Z,87.70
2022-07-26T17:16:24.362Z,89.50
2022-07-26T17:18:52.073Z,90.10
2022-07-26T17:21:18.738Z,90.90
2022-07-26T17:23:45.475Z,91.50
2022-07-26T17:26:12.207Z,92.60
2022-07-26T17:33:33.092Z,99.90
2022-07-26T17:40:56.060Z,99.90
2022-07-26T17:43:23.193Z,99.90
2022-07-26T17:45:50.660Z,99.90
2022-07-26T17:48:17.279Z,97.30
2022-07-26T17:50:43.964Z,93.40
2022-07-26T17:53:10.614Z,88.40
2022-07-26T17:55:37.635Z,91.00
2022-07-26T17:58:04.569Z,99.90
2022-07-26T18:00:31.278Z,99.90
2022-07-26T18:02:58.032Z,90.10
2022-07-26T18:05:31.750Z,91.20
2022-07-26T18:07:59.181Z,94.90
2022-07-26T18:10:27.610Z,90.40
2022-07-26T18:12:54.604Z,91.20
2022-07-26T18:15:21.487Z,94.50
2022-07-26T18:17:48.157Z,99.90
2022-07-26T18:20:14.818Z,99.90
2022-07-26T18:22:41.512Z,99.90
2022-07-26T18:25:12.755Z,99.60
2022-07-26T18:32:34.903Z,99.90
2022-07-26T18:37:28.684Z,92.70
2022-07-26T18:39:57.733Z,92.90
2022-07-26T18:42:25.126Z,93.00
2022-07-26T18:44:51.884Z,92.80
2022-07-26T18:47:18.586Z,94.80
2022-07-26T18:49:45.194Z,97.80
2022-07-26T18:52:11.867Z,93.80
2022-07-26T18:54:38.673Z,95.80
2022-07-26T18:57:05.455Z,95.40
2022-07-26T18:59:32.322Z,94.00
2022-07-26T19:02:00.326Z,94.00
2022-07-26T19:04:27.342Z,95.50
2022-07-26T19:06:54.212Z,96.70
2022-07-26T19:09:21.097Z,99.90
2022-07-26T19:11:47.858Z,99.90
2022-07-26T19:14:14.657Z,95.60
2022-07-26T19:21:35.612Z,99.90
2022-07-26T19:24:02.239Z,99.90
2022-07-26T19:26:29.715Z,99.90
2022-07-26T19:28:56.372Z,99.90
2022-07-26T19:31:23.171Z,99.90
2022-07-26T19:33:49.947Z,99.90
2022-07-26T19:36:22.549Z,99.90
2022-07-26T19:38:52.433Z,99.90
2022-07-26T19:41:20.034Z,99.30
2022-07-26T19:43:46.772Z,99.90
2022-07-26T19:46:13.535Z,99.90
2022-07-26T19:48:40.574Z,99.70
2022-07-26T19:51:07.330Z,99.90
2022-07-26T19:56:01.499Z,99.90
2022-07-26T19:58:29.225Z,99.90
2022-07-26T20:00:56.115Z,99.90
2022-07-26T20:05:50.195Z,99.90
2022-07-26T20:10:44.009Z,99.90
2022-07-26T20:13:10.656Z,99.90
2022-07-26T20:15:37.385Z,99.90
2022-07-26T20:18:04.679Z,99.90
2022-07-26T20:20:31.465Z,99.90
2022-07-26T20:22:58.147Z,99.90
2022-07-26T20:25:25.263Z,99.90
2022-07-26T20:27:51.969Z,99.90
2022-07-26T20:30:18.683Z,99.90
2022-07-26T20:32:45.419Z,99.90
2022-07-26T20:35:12.192Z,99.90
2022-07-26T20:37:40.770Z,99.90
2022-07-26T20:40:08.380Z,99.90
2022-07-26T20:42:36.293Z,99.90
2022-07-26T20:45:06.119Z,99.90
2022-07-26T20:47:40.338Z,99.90
2022-07-26T20:50:13.461Z,99.90
2022-07-26T20:52:40.245Z,99.90
2022-07-26T20:55:07.385Z,99.90
2022-07-26T20:57:34.069Z,99.90
2022-07-26T21:00:00.795Z,99.90
2022-07-26T21:02:27.656Z,99.90
2022-07-26T21:04:54.380Z,99.90
2022-07-26T21:07:21.089Z,99.90
2022-07-26T21:09:47.853Z,99.90
2022-07-26T21:12:14.520Z,99.90
2022-07-26T21:14:41.214Z,99.90
2022-07-26T21:17:11.611Z,99.90
2022-07-26T21:41:46.757Z,99.90
2022-07-26T21:44:13.425Z,99.90
2022-07-26T21:46:40.156Z,99.90
2022-07-26T21:49:07.002Z,99.90
2022-07-26T21:51:33.772Z,99.90
2022-07-26T21:54:01.701Z,99.90
2022-07-26T21:56:28.610Z,99.90
2022-07-26T21:58:55.596Z,99.90
2022-07-26T22:01:22.429Z,99.90
2022-07-26T22:03:49.187Z,99.90
2022-07-26T22:06:16.888Z,99.90
2022-07-26T22:08:43.878Z,99.90
2022-07-26T22:11:10.814Z,99.90
2022-07-26T22:13:38.140Z,99.90
2022-07-26T22:16:05.176Z,99.90
2022-07-26T22:18:31.999Z,99.90
2022-07-26T22:28:24.109Z,99.90
2022-07-26T22:30:50.715Z,99.90
2022-07-26T22:33:17.416Z,99.90
2022-07-26T22:35:44.224Z,99.90
2022-07-26T22:38:11.400Z,99.90
2022-07-26T22:40:38.999Z,99.90
2022-07-26T22:43:11.324Z,99.90
2022-07-26T22:45:38.298Z,99.90
2022-07-26T22:48:05.388Z,99.90
2022-07-26T22:50:32.466Z,99.90
2022-07-26T22:53:03.090Z,99.90
2022-07-26T22:55:29.872Z,99.90
2022-07-26T22:57:56.528Z,99.90
2022-07-26T23:00:23.226Z,99.90
2022-07-26T23:02:49.893Z,99.90
2022-07-26T23:05:16.795Z,99.90
2022-07-26T23:07:47.198Z,99.90
2022-07-26T23:10:15.088Z,99.90
2022-07-26T23:12:42.377Z,99.90
2022-07-26T23:15:09.859Z,99.90
2022-07-26T23:17:37.570Z,99.90
2022-07-26T23:20:05.505Z,99.90
2022-07-26T23:22:32.144Z,99.90
2022-07-26T23:24:58.802Z,99.90
2022-07-26T23:27:25.442Z,99.90
2022-07-26T23:29:52.062Z,99.90
2022-07-26T23:32:18.726Z,99.90
2022-07-26T23:34:45.418Z,99.90
2022-07-26T23:37:12.210Z,99.90
2022-07-26T23:39:38.930Z,99.90
2022-07-26T23:44:33.822Z,99.90
2022-07-26T23:47:00.523Z,99.90
2022-07-26T23:49:27.306Z,99.90
2022-07-26T23:51:54.130Z,99.90
2022-07-26T23:54:21.019Z,99.90
2022-07-26T23:56:47.689Z,99.90
2022-07-26T23:59:15.055Z,99.90
